Time;durP1;ratioP1;P1;durP2;ratioP2;P2;SDS_P1;SDS_P2;PMS_P1;PMS_P2;Temp;Humidity;BMP_temperature;BMP_pressure;BME280_temperature;BME280_humidity;BME280_pressure;Samples;Min_cycle;Max_cycle;Signal;HPM_P1;HPM_P2
2021/12/14 00:01:08;;;;;;;0.10;0.10;;;5.30;99.90;226.50;231333.00;;;;5008680;28;20569;-72
2021/12/14 00:03:42;;;;;;;0.10;0.10;;;5.30;99.90;226.50;231333.00;;;;5007552;28;20231;-74
2021/12/14 00:06:13;;;;;;;0.10;0.10;;;5.40;99.90;226.50;231333.00;;;;5011110;28;20732;-74
2021/12/14 00:08:48;;;;;;;0.10;0.10;;;5.30;99.90;226.50;231333.00;;;;5010334;28;20613;-74
2021/12/14 00:11:32;;;;;;;0.10;0.10;;;5.40;99.90;226.50;231333.00;;;;5008146;28;20572;-74
2021/12/14 00:14:25;;;;;;;0.10;0.10;;;5.40;99.90;226.50;231333.00;;;;5007440;28;20223;-74
2021/12/14 00:16:58;;;;;;;0.10;0.10;;;5.40;99.90;226.50;231333.00;;;;5008961;28;20603;-75
2021/12/14 00:19:30;;;;;;;0.10;0.10;;;5.40;99.90;226.50;231333.00;;;;5008988;28;20200;-74
2021/12/14 00:22:05;;;;;;;0.10;0.10;;;5.40;99.90;226.50;231333.00;;;;5002485;28;20199;-74
2021/12/14 00:24:34;;;;;;;0.10;0.10;;;5.40;99.90;226.50;231333.00;;;;5009814;28;20231;-74
2021/12/14 00:27:07;;;;;;;0.10;0.10;;;5.50;99.90;226.50;231333.00;;;;5007780;28;20262;-74
2021/12/14 00:29:40;;;;;;;0.10;0.10;;;5.40;99.90;226.50;231333.00;;;;5007870;28;20231;-75
2021/12/14 00:32:17;;;;;;;0.10;0.10;;;5.40;99.90;226.50;231333.00;;;;5027292;28;20207;-74
2021/12/14 00:34:48;;;;;;;0.10;0.10;;;5.40;99.90;226.50;231333.00;;;;5021846;28;20227;-73
2021/12/14 00:37:23;;;;;;;0.10;0.10;;;5.40;99.90;226.50;231333.00;;;;5013427;28;20261;-74
2021/12/14 00:39:56;;;;;;;0.00;0.00;;;5.30;99.90;226.50;231333.00;;;;5010280;28;20203;-74
2021/12/14 00:42:25;;;;;;;0.10;0.10;;;5.30;99.90;226.50;231333.00;;;;5020079;28;20210;-74
2021/12/14 00:44:53;;;;;;;0.10;0.10;;;5.30;99.90;226.50;231333.00;;;;5020050;28;20235;-74
2021/12/14 00:47:21;;;;;;;0.10;0.10;;;5.30;99.90;226.50;231333.00;;;;5020764;28;20196;-73
2021/12/14 00:49:54;;;;;;;0.10;0.10;;;5.30;99.90;226.50;231333.00;;;;5008056;28;20226;-74
2021/12/14 00:52:23;;;;;;;0.10;0.10;;;5.40;99.90;226.50;160791.00;;;;5008938;28;20200;-74
2021/12/14 00:54:52;;;;;;;0.10;0.10;;;5.40;99.90;226.50;231333.00;;;;5008019;28;20227;-73
2021/12/14 00:57:20;;;;;;;0.10;0.10;;;5.30;99.90;226.50;231333.00;;;;5003938;28;20200;-73
2021/12/14 00:59:48;;;;;;;0.10;0.10;;;5.30;99.90;226.50;231333.00;;;;5001058;28;20673;-73
2021/12/14 01:02:21;;;;;;;0.10;0.10;;;5.40;99.90;226.50;231333.00;;;;5018177;28;20196;-73
2021/12/14 01:04:58;;;;;;;0.10;0.10;;;5.40;99.90;226.50;231333.00;;;;5004502;28;20236;-73
2021/12/14 01:07:31;;;;;;;0.10;0.10;;;5.50;99.90;226.50;231333.00;;;;5006206;28;20215;-73
2021/12/14 01:10:08;;;;;;;0.10;0.10;;;5.40;99.90;226.50;231333.00;;;;5006015;28;20200;-72
2021/12/14 01:12:44;;;;;;;0.10;0.10;;;5.40;99.90;226.50;231333.00;;;;5006976;28;20278;-73
2021/12/14 01:15:26;;;;;;;0.10;0.10;;;5.40;99.90;226.50;231333.00;;;;5005904;28;20210;-73
2021/12/14 01:18:15;;;;;;;0.10;0.10;;;5.40;99.90;226.50;231333.00;;;;5006643;28;20200;-73
2021/12/14 01:20:50;;;;;;;0.10;0.10;;;5.40;99.90;226.50;231333.00;;;;5006668;28;20195;-74
2021/12/14 01:23:29;;;;;;;0.10;0.10;;;5.40;99.90;226.50;231333.00;;;;5007255;28;20215;-74
2021/12/14 01:26:04;;;;;;;0.10;0.10;;;5.40;99.90;226.50;231333.00;;;;5007598;28;20539;-74
2021/12/14 01:28:34;;;;;;;0.10;0.10;;;5.40;99.90;226.50;231333.00;;;;5005107;28;20204;-74
2021/12/14 01:31:11;;;;;;;0.10;0.10;;;5.40;99.90;226.50;231333.00;;;;5006731;28;20211;-73
2021/12/14 01:33:44;;;;;;;0.10;0.10;;;5.30;99.90;226.50;231333.00;;;;5005159;28;20952;-75
2021/12/14 01:36:28;;;;;;;0.08;0.08;;;5.30;99.90;226.50;231333.00;;;;5007452;28;20562;-73
2021/12/14 01:39:44;;;;;;;0.10;0.10;;;5.30;99.90;226.50;231333.00;;;;5008581;28;20225;-72
2021/12/14 01:42:17;;;;;;;0.10;0.10;;;5.30;99.90;226.50;231333.00;;;;5005793;28;20192;-73
2021/12/14 01:44:50;;;;;;;0.10;0.10;;;5.30;99.90;226.50;231333.00;;;;5002862;28;20306;-74
2021/12/14 01:47:28;;;;;;;0.10;0.10;;;5.30;99.90;226.50;231333.00;;;;5000056;28;20249;-74
2021/12/14 01:50:21;;;;;;;0.10;0.10;;;5.30;99.90;226.50;231333.00;;;;5007471;28;20210;-74
2021/12/14 01:53:07;;;;;;;0.10;0.10;;;5.40;99.90;226.50;231333.00;;;;5021870;28;20700;-74
2021/12/14 01:55:39;;;;;;;0.10;0.10;;;5.40;99.90;226.50;231333.00;;;;5004666;28;20262;-73
2021/12/14 01:58:10;;;;;;;0.00;0.00;;;5.40;99.90;226.50;231333.00;;;;5006736;28;20209;-74
2021/12/14 02:00:44;;;;;;;0.10;0.10;;;5.40;99.90;226.50;231333.00;;;;5005994;28;20208;-74
2021/12/14 02:03:16;;;;;;;0.10;0.10;;;5.40;99.90;226.50;231333.00;;;;5006173;28;20223;-74
2021/12/14 02:05:50;;;;;;;0.10;0.10;;;5.40;99.90;226.50;231333.00;;;;5004800;28;20230;-73
2021/12/14 02:08:24;;;;;;;0.10;0.10;;;5.30;99.90;226.50;231333.00;;;;5007315;28;20218;-73
2021/12/14 02:10:55;;;;;;;0.00;0.00;;;5.40;99.90;226.50;231333.00;;;;5008252;28;20286;-74
2021/12/14 02:13:30;;;;;;;0.10;0.10;;;5.40;99.90;226.50;231333.00;;;;5003963;28;20232;-74
2021/12/14 02:15:59;;;;;;;0.10;0.10;;;5.40;99.90;226.50;231333.00;;;;5003921;28;20200;-74
2021/12/14 02:18:55;;;;;;;0.10;0.10;;;5.40;99.90;226.50;231333.00;;;;5005646;28;20207;-74
2021/12/14 02:21:25;;;;;;;0.10;0.10;;;5.40;99.90;226.50;231333.00;;;;5005755;28;20206;-74
2021/12/14 02:23:58;;;;;;;0.10;0.10;;;5.40;99.90;226.50;231333.00;;;;5007158;28;20298;-74
2021/12/14 02:26:34;;;;;;;0.10;0.10;;;5.30;99.90;226.50;231333.00;;;;5003225;28;20196;-74
2021/12/14 02:29:07;;;;;;;0.10;0.10;;;5.30;99.90;226.50;231333.00;;;;5009545;28;20610;-74
2021/12/14 02:31:41;;;;;;;0.10;0.10;;;5.30;99.90;226.50;231333.00;;;;5007119;28;20617;-74
2021/12/14 02:34:11;;;;;;;0.10;0.10;;;5.30;99.90;226.50;231333.00;;;;5007274;28;20260;-74
2021/12/14 02:36:46;;;;;;;0.10;0.10;;;5.30;99.90;226.50;231333.00;;;;5012133;28;20199;-74
2021/12/14 02:39:35;;;;;;;0.10;0.10;;;5.40;99.90;226.50;231333.00;;;;5011704;28;20217;-74
2021/12/14 02:42:05;;;;;;;0.10;0.10;;;5.40;99.90;226.50;231333.00;;;;5010618;28;20253;-73
2021/12/14 02:44:34;;;;;;;0.10;0.10;;;5.40;99.90;226.50;231333.00;;;;5010661;28;20220;-74
2021/12/14 02:47:09;;;;;;;0.10;0.10;;;5.30;99.90;226.50;231333.00;;;;5011600;28;20219;-74
2021/12/14 02:49:41;;;;;;;0.10;0.10;;;5.30;99.90;226.50;231333.00;;;;5008620;28;20205;-73
2021/12/14 02:52:15;;;;;;;0.10;0.10;;;5.30;99.90;226.50;231333.00;;;;5006988;28;20203;-73
2021/12/14 02:54:48;;;;;;;0.10;0.10;;;5.30;99.90;226.50;231333.00;;;;5007853;28;20227;-73
2021/12/14 02:57:23;;;;;;;0.10;0.10;;;5.30;99.90;226.50;231333.00;;;;5006076;28;20566;-73
2021/12/14 02:59:53;;;;;;;0.10;0.10;;;5.30;99.90;226.50;231333.00;;;;5009016;28;20208;-74
2021/12/14 03:02:28;;;;;;;0.10;0.10;;;5.30;99.90;226.50;231333.00;;;;5007363;28;20193;-74
2021/12/14 03:05:02;;;;;;;0.10;0.10;;;5.30;99.90;226.50;231333.00;;;;5008932;28;20263;-73
2021/12/14 03:07:38;;;;;;;0.00;0.00;;;5.30;99.90;226.50;231333.00;;;;5009180;28;20207;-73
2021/12/14 03:10:21;;;;;;;0.10;0.10;;;5.30;99.90;226.50;231333.00;;;;5011732;28;20196;-73
2021/12/14 03:12:53;;;;;;;0.10;0.10;;;5.20;99.90;226.50;231333.00;;;;5011855;28;20579;-73
2021/12/14 03:15:28;;;;;;;0.10;0.10;;;5.10;99.90;226.50;231333.00;;;;5009163;28;20203;-73
2021/12/14 03:18:00;;;;;;;0.10;0.10;;;5.10;99.90;226.50;231333.00;;;;5010650;28;20211;-73
2021/12/14 03:20:33;;;;;;;0.00;0.00;;;5.10;99.90;226.50;231333.00;;;;5008412;28;20235;-74
2021/12/14 03:23:07;;;;;;;0.10;0.10;;;5.20;99.90;226.50;231333.00;;;;5008188;28;20744;-74
2021/12/14 03:25:41;;;;;;;0.10;0.10;;;5.20;99.90;226.50;231333.00;;;;5008726;28;20223;-73
2021/12/14 03:28:11;;;;;;;0.10;0.10;;;5.10;99.90;226.50;231333.00;;;;5006067;28;20203;-74
2021/12/14 03:31:02;;;;;;;0.10;0.10;;;5.10;99.90;226.50;231333.00;;;;5007259;28;20196;-74
2021/12/14 03:33:43;;;;;;;0.10;0.10;;;5.10;99.90;226.50;231333.00;;;;5008655;28;20264;-74
2021/12/14 03:36:16;;;;;;;0.10;0.10;;;5.10;99.90;226.50;231333.00;;;;5007909;28;20699;-74
2021/12/14 03:38:52;;;;;;;0.10;0.10;;;5.20;99.90;226.50;231333.00;;;;5022829;28;20200;-74
2021/12/14 03:41:25;;;;;;;0.10;0.10;;;5.20;99.90;226.50;231333.00;;;;5009072;28;20203;-74
2021/12/14 03:43:58;;;;;;;0.10;0.10;;;5.10;99.90;226.50;231333.00;;;;5006952;28;20247;-74
2021/12/14 03:46:38;;;;;;;0.10;0.10;;;5.20;99.90;226.50;231333.00;;;;5006858;28;20215;-74
2021/12/14 03:49:08;;;;;;;0.10;0.10;;;5.20;99.90;226.50;231333.00;;;;5008323;28;20588;-74
2021/12/14 03:51:40;;;;;;;0.00;0.00;;;5.20;99.90;226.50;231333.00;;;;5008940;28;20668;-75
2021/12/14 03:54:10;;;;;;;0.10;0.10;;;5.20;99.90;226.50;231333.00;;;;5008290;28;20230;-73
2021/12/14 03:56:39;;;;;;;0.10;0.10;;;5.20;99.90;226.50;231333.00;;;;5023050;28;20619;-74
2021/12/14 03:59:08;;;;;;;0.00;0.00;;;5.20;99.90;226.50;231333.00;;;;5005797;28;20207;-74
2021/12/14 04:01:42;;;;;;;0.00;0.00;;;5.30;99.90;226.50;231333.00;;;;5005664;28;20205;-75
2021/12/14 04:04:19;;;;;;;0.10;0.10;;;5.30;99.90;226.50;231333.00;;;;5006816;28;20237;-75
2021/12/14 04:06:51;;;;;;;0.10;0.10;;;5.20;99.90;226.50;231333.00;;;;5004473;28;20309;-74
2021/12/14 04:09:28;;;;;;;0.10;0.10;;;5.20;99.90;226.50;231333.00;;;;5006349;28;20192;-75
2021/12/14 04:11:58;;;;;;;0.10;0.10;;;5.20;99.90;226.50;231333.00;;;;5007392;28;20200;-75
2021/12/14 04:14:29;;;;;;;0.10;0.10;;;5.30;99.90;226.50;231333.00;;;;5022222;28;20234;-75
2021/12/14 04:17:00;;;;;;;0.10;0.10;;;5.30;99.90;226.50;231333.00;;;;5005135;28;20630;-75
2021/12/14 04:19:31;;;;;;;0.10;0.10;;;5.30;99.90;226.50;231333.00;;;;5005447;28;20219;-74
2021/12/14 04:22:11;;;;;;;0.03;0.03;;;5.30;99.90;226.50;231333.00;;;;5022086;28;20222;-75
2021/12/14 04:24:43;;;;;;;0.00;0.00;;;5.30;99.90;226.50;231333.00;;;;5024261;28;20273;-74
2021/12/14 04:27:18;;;;;;;0.05;0.05;;;5.30;99.90;226.50;231333.00;;;;5007304;28;20626;-75
2021/12/14 04:29:47;;;;;;;0.05;0.05;;;5.30;99.90;226.50;231333.00;;;;5011433;28;20278;-74
2021/12/14 04:32:18;;;;;;;0.10;0.10;;;5.30;99.90;226.50;231333.00;;;;5009276;28;20214;-74
2021/12/14 04:34:48;;;;;;;0.10;0.10;;;5.30;99.90;226.50;231333.00;;;;5005734;28;20298;-75
2021/12/14 04:37:18;;;;;;;0.10;0.10;;;5.30;99.90;226.50;231333.00;;;;5008967;28;20214;-74
2021/12/14 04:39:55;;;;;;;0.10;0.10;;;5.30;99.90;226.50;231333.00;;;;5008039;28;20250;-75
2021/12/14 04:53:52;;;;;;;0.10;0.10;;;5.30;99.90;226.50;231333.00;;;;5007925;28;21407;-74
2021/12/14 04:56:31;;;;;;;0.10;0.10;;;5.30;99.90;226.50;231333.00;;;;5007798;28;20214;-73
2021/12/14 04:59:08;;;;;;;0.00;0.00;;;5.30;99.90;226.50;231333.00;;;;5006566;28;20199;-73
2021/12/14 05:01:43;;;;;;;0.10;0.10;;;5.30;99.90;226.50;231333.00;;;;5009569;28;20206;-74
2021/12/14 05:04:21;;;;;;;0.10;0.10;;;5.30;99.90;226.50;231333.00;;;;5009608;28;20696;-73
2021/12/14 05:06:55;;;;;;;0.10;0.10;;;5.30;99.90;226.50;231333.00;;;;5006981;28;20277;-74
2021/12/14 05:09:29;;;;;;;0.10;0.10;;;5.30;99.90;226.50;231333.00;;;;5008068;28;20203;-73
2021/12/14 05:12:24;;;;;;;0.10;0.10;;;5.30;99.90;226.50;231333.00;;;;5008970;28;20199;-74
2021/12/14 05:15:06;;;;;;;0.10;0.10;;;5.30;99.90;226.50;231333.00;;;;5021161;28;20259;-74
2021/12/14 05:17:42;;;;;;;0.10;0.10;;;5.30;99.90;226.50;231333.00;;;;5006488;28;20668;-74
2021/12/14 05:20:14;;;;;;;0.10;0.10;;;5.30;99.90;226.50;231333.00;;;;5007132;28;20192;-73
2021/12/14 05:22:45;;;;;;;0.08;0.08;;;5.30;99.90;226.50;231333.00;;;;5006797;28;20570;-73
2021/12/14 05:25:24;;;;;;;0.10;0.10;;;5.40;99.90;226.50;231333.00;;;;5002775;28;20200;-74
2021/12/14 05:28:00;;;;;;;0.10;0.10;;;5.40;99.90;226.50;231333.00;;;;5002442;28;20673;-74
2021/12/14 05:30:36;;;;;;;0.10;0.10;;;5.40;99.90;226.50;231333.00;;;;5005933;28;20230;-74
2021/12/14 05:33:27;;;;;;;0.10;0.10;;;5.30;99.90;226.50;160644.00;;;;5007828;28;20219;-74
2021/12/14 05:36:04;;;;;;;0.00;0.00;;;5.40;99.90;226.50;231333.00;;;;5003284;28;20214;-74
2021/12/14 05:38:46;;;;;;;0.10;0.10;;;5.40;99.90;226.50;231333.00;;;;5005618;28;20241;-74
2021/12/14 05:44:27;;;;;;;0.10;0.10;;;5.40;99.90;226.50;231333.00;;;;5007019;28;20582;-73
2021/12/14 05:47:06;;;;;;;0.10;0.10;;;5.40;99.90;226.50;231333.00;;;;4999077;28;20308;-74
2021/12/14 05:49:49;;;;;;;0.10;0.10;;;5.40;99.90;226.50;231333.00;;;;5006328;28;20775;-74
2021/12/14 05:52:23;;;;;;;0.10;0.10;;;5.40;99.90;226.50;231333.00;;;;5006500;28;20207;-73
2021/12/14 05:54:54;;;;;;;0.10;0.10;;;5.40;99.90;226.50;231333.00;;;;5005877;28;20214;-73
2021/12/14 05:57:26;;;;;;;0.10;0.10;;;5.40;99.90;226.50;231333.00;;;;5004665;28;20203;-73
2021/12/14 05:59:57;;;;;;;0.10;0.10;;;5.40;99.90;226.50;231333.00;;;;5006055;28;20210;-74
2021/12/14 06:02:27;;;;;;;0.10;0.10;;;5.30;99.90;226.50;231333.00;;;;5004425;28;20207;-74
2021/12/14 06:04:57;;;;;;;0.10;0.10;;;5.30;99.90;226.50;231333.00;;;;5026297;28;20211;-73
2021/12/14 06:07:26;;;;;;;0.10;0.10;;;5.30;99.90;226.50;231333.00;;;;5008675;28;20227;-73
2021/12/14 06:09:57;;;;;;;0.10;0.10;;;5.30;99.90;226.50;160775.00;;;;5006462;28;20227;-72
2021/12/14 06:12:36;;;;;;;0.10;0.10;;;5.30;99.90;226.50;231333.00;;;;5008935;28;20226;-73
2021/12/14 06:15:16;;;;;;;0.10;0.10;;;5.30;99.90;226.50;231333.00;;;;5007985;28;20206;-75
2021/12/14 06:17:46;;;;;;;0.10;0.10;;;5.30;99.90;226.50;160958.00;;;;5008648;28;20208;-73
2021/12/14 06:20:36;;;;;;;0.10;0.10;;;5.30;99.90;226.50;231333.00;;;;5008698;28;20199;-74
2021/12/14 06:23:09;;;;;;;0.10;0.10;;;5.30;99.90;226.50;231333.00;;;;5010587;28;20231;-72
2021/12/14 06:25:58;;;;;;;0.10;0.10;;;5.30;99.90;226.50;231333.00;;;;5012759;28;20291;-73
2021/12/14 06:28:29;;;;;;;0.10;0.10;;;5.30;99.90;226.50;231333.00;;;;5009642;28;20286;-74
2021/12/14 06:31:02;;;;;;;0.10;0.10;;;5.30;99.90;226.50;231333.00;;;;5008489;28;20200;-74
2021/12/14 06:33:33;;;;;;;0.10;0.10;;;5.20;99.90;226.50;231333.00;;;;5008822;28;20263;-74
2021/12/14 06:36:11;;;;;;;0.10;0.10;;;5.30;99.90;226.50;231333.00;;;;5009692;28;20211;-73
2021/12/14 06:38:39;;;;;;;0.10;0.10;;;5.30;99.90;226.50;231333.00;;;;5008938;28;20206;-74
2021/12/14 06:41:13;;;;;;;0.10;0.10;;;5.30;99.90;226.50;231333.00;;;;5009641;28;20204;-73
2021/12/14 06:43:52;;;;;;;0.10;0.10;;;5.30;99.90;226.50;231333.00;;;;5006245;28;20207;-73
2021/12/14 06:46:26;;;;;;;0.10;0.10;;;5.30;99.90;226.50;231333.00;;;;5010210;28;20775;-74
2021/12/14 06:49:00;;;;;;;0.10;0.10;;;5.30;99.90;226.50;231333.00;;;;5003779;28;20379;-74
2021/12/14 06:51:33;;;;;;;0.10;0.10;;;5.30;99.90;226.50;231333.00;;;;5003993;28;20250;-74
2021/12/14 06:54:19;;;;;;;0.10;0.10;;;5.30;99.90;226.50;231333.00;;;;5007105;28;20563;-74
2021/12/14 06:57:06;;;;;;;0.10;0.10;;;5.30;99.90;226.50;231333.00;;;;5006873;28;20196;-74
2021/12/14 06:59:55;;;;;;;0.10;0.10;;;5.30;99.90;226.50;231333.00;;;;5008789;28;20198;-74
2021/12/14 07:02:29;;;;;;;0.10;0.10;;;5.30;99.90;226.50;231333.00;;;;5008941;28;20200;-74
2021/12/14 07:05:05;;;;;;;0.10;0.10;;;5.30;99.90;226.50;231333.00;;;;5007649;28;20204;-74
2021/12/14 07:07:37;;;;;;;0.10;0.10;;;5.40;99.90;226.50;231333.00;;;;5008787;28;20217;-74
2021/12/14 07:10:13;;;;;;;0.10;0.10;;;5.40;99.90;226.50;231333.00;;;;5007758;28;20214;-74
2021/12/14 07:12:42;;;;;;;0.10;0.10;;;5.30;99.90;226.50;231333.00;;;;5008058;28;20207;-74
2021/12/14 07:15:20;;;;;;;0.10;0.10;;;5.40;99.90;226.50;231333.00;;;;5006407;28;20250;-74
2021/12/14 07:18:01;;;;;;;0.10;0.10;;;5.40;99.90;226.50;231333.00;;;;5009094;28;20291;-74
2021/12/14 07:20:34;;;;;;;0.10;0.10;;;5.40;99.90;226.50;231333.00;;;;5007811;28;20227;-74
2021/12/14 07:23:15;;;;;;;0.08;0.08;;;5.40;99.90;226.50;231333.00;;;;5006817;28;20246;-74
2021/12/14 07:25:44;;;;;;;0.10;0.10;;;5.40;99.90;226.50;231333.00;;;;5013709;28;20602;-74
2021/12/14 07:28:15;;;;;;;0.10;0.10;;;5.40;99.90;226.50;231333.00;;;;5015478;28;20235;-73
2021/12/14 07:30:46;;;;;;;0.10;0.10;;;5.40;99.90;226.50;231333.00;;;;5015970;28;20220;-73
2021/12/14 07:33:19;;;;;;;0.10;0.10;;;5.40;99.90;226.50;231333.00;;;;5008998;28;20671;-74
2021/12/14 07:35:54;;;;;;;0.00;0.00;;;5.40;99.90;226.50;231333.00;;;;5008397;28;20688;-74
2021/12/14 07:38:36;;;;;;;0.10;0.10;;;5.40;99.90;226.50;231333.00;;;;5011992;28;20260;-74
2021/12/14 07:41:19;;;;;;;0.10;0.10;;;5.40;99.90;226.50;231333.00;;;;5022337;28;20669;-74
2021/12/14 07:43:54;;;;;;;0.00;0.00;;;5.40;99.90;226.50;231333.00;;;;5019451;28;20223;-73
2021/12/14 07:46:30;;;;;;;0.10;0.10;;;5.40;99.90;226.50;231333.00;;;;5017714;28;20211;-73
2021/12/14 07:49:05;;;;;;;0.00;0.00;;;5.40;99.90;226.50;231333.00;;;;5016794;28;20212;-74
2021/12/14 07:51:37;;;;;;;0.10;0.10;;;5.30;99.90;226.50;231333.00;;;;5006113;28;22047;-74
2021/12/14 07:54:11;;;;;;;0.00;0.00;;;5.30;99.90;226.50;231333.00;;;;5006599;28;20225;-74
2021/12/14 07:56:43;;;;;;;0.10;0.10;;;5.40;99.90;226.50;231333.00;;;;5008869;28;20208;-74
2021/12/14 07:59:24;;;;;;;0.10;0.10;;;5.40;99.90;226.50;231333.00;;;;5008323;28;20203;-74
2021/12/14 08:02:12;;;;;;;0.10;0.10;;;5.40;99.90;226.50;231333.00;;;;5004125;28;20207;-74
2021/12/14 08:04:47;;;;;;;0.10;0.10;;;5.40;99.90;226.50;231333.00;;;;5003418;28;20242;-73
2021/12/14 08:07:31;;;;;;;0.10;0.10;;;5.50;99.90;226.50;231333.00;;;;5008682;28;20215;-74
2021/12/14 08:10:07;;;;;;;0.10;0.10;;;5.50;99.90;226.50;231333.00;;;;5007367;28;20214;-74
2021/12/14 08:12:42;;;;;;;0.10;0.10;;;5.50;99.90;226.50;231333.00;;;;5005648;28;20208;-74
2021/12/14 08:15:21;;;;;;;0.10;0.10;;;5.50;99.90;226.50;231333.00;;;;5007770;28;20214;-74
2021/12/14 08:18:05;;;;;;;0.10;0.10;;;5.60;99.90;226.50;231333.00;;;;5008611;28;20253;-74
2021/12/14 08:20:39;;;;;;;0.10;0.10;;;5.50;99.90;226.50;231333.00;;;;5004277;28;20215;-74
2021/12/14 08:23:20;;;;;;;0.10;0.10;;;5.50;99.90;226.50;231333.00;;;;5003839;28;20273;-73
2021/12/14 08:25:51;;;;;;;0.10;0.10;;;5.50;99.90;226.50;231333.00;;;;5003293;28;20210;-75
2021/12/14 08:28:21;;;;;;;0.10;0.10;;;5.50;99.90;226.50;231333.00;;;;5006144;28;20227;-73
2021/12/14 08:31:08;;;;;;;0.10;0.10;;;5.50;99.90;226.50;231333.00;;;;5007055;28;20203;-74
2021/12/14 08:33:37;;;;;;;0.10;0.10;;;5.60;99.90;226.50;231333.00;;;;5008188;28;20216;-74
2021/12/14 08:36:11;;;;;;;0.10;0.10;;;5.60;99.90;226.50;231333.00;;;;5004776;28;20258;-74
2021/12/14 08:38:41;;;;;;;0.10;0.10;;;5.60;99.90;226.50;231333.00;;;;5012370;28;20218;-73
2021/12/14 08:41:17;;;;;;;0.10;0.10;;;5.70;99.90;226.50;231333.00;;;;5008797;28;20257;-73
2021/12/14 08:43:50;;;;;;;0.10;0.10;;;5.80;99.90;226.50;231333.00;;;;5008024;28;20281;-73
2021/12/14 08:46:23;;;;;;;0.10;0.10;;;5.80;99.90;226.50;231333.00;;;;5007440;28;20219;-72
2021/12/14 08:48:56;;;;;;;0.10;0.10;;;5.70;99.90;226.50;231333.00;;;;5007935;28;20219;-72
2021/12/14 08:51:31;;;;;;;0.00;0.00;;;5.60;99.90;226.50;231333.00;;;;5008794;28;20200;-73
2021/12/14 08:54:06;;;;;;;0.10;0.10;;;5.60;99.90;226.50;231333.00;;;;5008291;28;20692;-73
2021/12/14 08:56:40;;;;;;;0.10;0.10;;;5.60;99.90;226.50;231333.00;;;;5007133;28;20183;-72
2021/12/14 08:59:09;;;;;;;0.10;0.10;;;5.50;99.90;226.50;231333.00;;;;5003076;28;20200;-73
2021/12/14 09:01:40;;;;;;;0.10;0.10;;;5.50;99.90;226.50;231333.00;;;;5007957;28;20249;-73
2021/12/14 09:04:16;;;;;;;0.10;0.10;;;5.50;99.90;226.50;231333.00;;;;5004685;28;20242;-73
2021/12/14 09:06:52;;;;;;;0.10;0.10;;;5.50;99.90;226.50;231333.00;;;;5004344;28;20202;-73
2021/12/14 09:09:22;;;;;;;0.10;0.10;;;5.50;99.90;226.50;231333.00;;;;5005935;28;20278;-73
2021/12/14 09:12:02;;;;;;;0.10;0.10;;;5.50;99.90;226.50;231333.00;;;;5005729;28;20259;-72
2021/12/14 09:14:32;;;;;;;0.10;0.10;;;5.60;99.90;226.50;231333.00;;;;5003599;28;20294;-73
2021/12/14 09:17:03;;;;;;;0.10;0.10;;;5.60;99.90;226.50;231333.00;;;;5007730;28;20199;-73
2021/12/14 09:19:37;;;;;;;0.05;0.05;;;5.60;99.90;226.50;231333.00;;;;5006801;28;20210;-73
2021/12/14 09:22:13;;;;;;;0.10;0.10;;;5.60;99.90;226.50;231333.00;;;;5007406;28;20204;-73
2021/12/14 09:24:43;;;;;;;0.10;0.10;;;5.70;99.90;226.50;231333.00;;;;5006504;28;20693;-73
2021/12/14 09:27:20;;;;;;;0.10;0.10;;;5.80;99.90;226.50;231333.00;;;;5008851;28;20195;-74
2021/12/14 09:29:49;;;;;;;0.10;0.10;;;5.80;99.90;226.50;231333.00;;;;5007963;28;20223;-73
2021/12/14 09:32:24;;;;;;;0.10;0.10;;;5.80;99.90;226.50;231333.00;;;;5007155;28;20200;-73
2021/12/14 09:34:54;;;;;;;0.10;0.10;;;5.80;99.90;226.50;231333.00;;;;5007453;28;20235;-73
2021/12/14 09:37:28;;;;;;;0.10;0.10;;;5.90;99.90;226.50;231333.00;;;;5008414;28;20195;-73
2021/12/14 09:40:05;;;;;;;0.10;0.10;;;5.90;99.90;226.50;231333.00;;;;5011184;28;20199;-72
2021/12/14 09:42:36;;;;;;;0.10;0.10;;;5.90;99.90;226.50;231333.00;;;;5011427;28;20254;-73
2021/12/14 09:45:10;;;;;;;0.05;0.05;;;5.90;99.90;226.50;231333.00;;;;5013745;28;20204;-73
2021/12/14 09:47:39;;;;;;;0.10;0.10;;;5.90;99.90;226.50;231333.00;;;;5015385;28;20238;-73
2021/12/14 09:50:17;;;;;;;0.05;0.05;;;5.90;99.90;226.50;231333.00;;;;5009539;28;20326;-72
2021/12/14 09:52:48;;;;;;;0.10;0.10;;;5.90;99.90;226.50;231333.00;;;;5011415;28;20199;-72
2021/12/14 09:55:21;;;;;;;0.10;0.10;;;5.90;99.90;226.50;231333.00;;;;5012939;28;20192;-72
2021/12/14 09:57:55;;;;;;;0.10;0.10;;;5.90;99.90;226.50;231333.00;;;;5010378;28;20283;-70
2021/12/14 10:00:28;;;;;;;0.10;0.10;;;5.90;99.90;226.50;231333.00;;;;5010856;28;20266;-71
2021/12/14 10:02:59;;;;;;;0.00;0.00;;;5.90;99.90;226.50;231333.00;;;;5008533;28;20243;-74
2021/12/14 10:05:34;;;;;;;0.00;0.00;;;6.00;99.90;226.50;231333.00;;;;5010940;28;20196;-72
2021/12/14 10:08:14;;;;;;;0.10;0.10;;;6.00;99.90;226.50;231333.00;;;;5006067;28;20195;-72
2021/12/14 10:10:46;;;;;;;0.08;0.08;;;6.00;99.90;226.50;231333.00;;;;5010640;28;20199;-72
2021/12/14 10:13:14;;;;;;;0.10;0.10;;;6.00;99.90;226.50;231333.00;;;;5007821;28;20289;-72
2021/12/14 10:15:48;;;;;;;0.10;0.10;;;6.00;99.90;226.50;231333.00;;;;5011587;28;20731;-72
2021/12/14 10:18:24;;;;;;;0.10;0.10;;;6.00;99.90;226.50;231333.00;;;;5011155;28;20191;-72
2021/12/14 10:20:57;;;;;;;0.10;0.10;;;6.00;99.90;226.50;231333.00;;;;5010200;28;20577;-72
2021/12/14 10:23:30;;;;;;;0.10;0.10;;;5.90;99.90;226.50;231333.00;;;;5009072;28;20224;-73
2021/12/14 10:26:00;;;;;;;0.10;0.10;;;6.00;99.90;226.50;231333.00;;;;5008812;28;20238;-72
2021/12/14 10:28:32;;;;;;;0.10;0.10;;;6.00;99.90;226.50;231333.00;;;;5012452;28;20693;-73
2021/12/14 10:31:11;;;;;;;0.10;0.10;;;6.00;99.90;226.50;231333.00;;;;5024830;28;20681;-74
2021/12/14 10:33:43;;;;;;;0.10;0.10;;;6.10;99.90;226.50;231333.00;;;;5025827;28;20220;-74
2021/12/14 10:36:25;;;;;;;0.10;0.10;;;6.10;99.90;226.50;231333.00;;;;5027649;28;20264;-73
2021/12/14 10:39:08;;;;;;;0.10;0.10;;;6.10;99.90;226.50;231333.00;;;;5026631;28;20631;-72
2021/12/14 10:44:27;;;;;;;0.10;0.10;;;6.30;99.90;226.50;231333.00;;;;5024488;28;20224;-72
2021/12/14 10:46:56;;;;;;;0.10;0.10;;;6.30;99.90;226.50;231333.00;;;;5021165;28;20211;-73
2021/12/14 10:49:27;;;;;;;0.10;0.10;;;6.30;99.90;226.50;231333.00;;;;5010807;28;20247;-73
2021/12/14 10:52:00;;;;;;;0.10;0.10;;;6.30;99.90;226.50;231333.00;;;;5009783;28;20196;-73
2021/12/14 10:54:30;;;;;;;0.10;0.10;;;6.20;99.90;226.50;231333.00;;;;5008031;28;20211;-73
2021/12/14 10:57:04;;;;;;;0.10;0.10;;;6.20;99.90;226.50;231333.00;;;;5010521;28;20258;-73
2021/12/14 10:59:37;;;;;;;0.10;0.10;;;6.30;99.90;226.50;231333.00;;;;5011226;28;20195;-73
2021/12/14 11:02:09;;;;;;;0.10;0.10;;;6.30;99.90;226.50;231333.00;;;;5012623;28;20230;-73
2021/12/14 11:04:53;;;;;;;0.10;0.10;;;6.30;99.90;226.50;231333.00;;;;5009112;28;20239;-74
2021/12/14 11:07:28;;;;;;;0.10;0.10;;;6.30;99.90;226.50;161299.00;;;;5009793;28;20224;-73
2021/12/14 11:10:11;;;;;;;0.10;0.10;;;6.30;99.90;226.50;231333.00;;;;5007813;28;21451;-72
2021/12/14 11:12:44;;;;;;;0.10;0.10;;;6.40;99.90;226.50;231333.00;;;;5009310;28;20744;-73
2021/12/14 11:15:17;;;;;;;0.10;0.10;;;6.50;99.90;226.50;231333.00;;;;5009363;28;20192;-73
2021/12/14 11:20:40;;;;;;;0.10;0.10;;;6.50;99.90;226.50;231333.00;;;;5005673;28;20354;-73
2021/12/14 11:23:12;;;;;;;0.10;0.10;;;6.50;99.90;226.50;231333.00;;;;5004369;28;20211;-73
2021/12/14 11:25:53;;;;;;;0.10;0.10;;;6.50;99.90;226.50;231333.00;;;;5005461;28;20200;-73
2021/12/14 11:28:33;;;;;;;0.10;0.10;;;6.50;99.90;226.50;231333.00;;;;5007789;28;20195;-73
2021/12/14 11:31:08;;;;;;;0.10;0.10;;;6.50;99.90;226.50;231333.00;;;;5010086;28;20217;-73
2021/12/14 11:33:42;;;;;;;0.10;0.10;;;6.50;99.90;226.50;231333.00;;;;5007875;28;20649;-73
2021/12/14 11:36:15;;;;;;;0.10;0.10;;;6.50;99.90;226.50;231333.00;;;;5004710;28;20199;-74
2021/12/14 11:38:49;;;;;;;0.10;0.10;;;6.50;99.90;226.50;231333.00;;;;5010019;28;20196;-73
2021/12/14 11:41:41;;;;;;;0.10;0.10;;;6.50;99.90;226.50;231333.00;;;;5006937;28;20207;-73